Time;durP1;ratioP1;P1;durP2;ratioP2;P2;SDS_P1;SDS_P2;PMS_P1;PMS_P2;Temp;Humidity;BMP_temperature;BMP_pressure;BME280_temperature;BME280_humidity;BME280_pressure;Samples;Min_cycle;Max_cycle;Signal;HPM_P1;HPM_P2
2023/04/06 00:01:24;;;;;;;2.90;2.60;;;;;;;-0.26;97.88;100499.52;107683;1251;97868;-66
2023/04/06 00:03:53;;;;;;;4.50;3.50;;;;;;;-0.25;97.40;100495.91;107594;1250;97845;-68
2023/04/06 00:06:21;;;;;;;4.00;3.50;;;;;;;-0.26;97.82;100493.33;107548;1250;110866;-66
2023/04/06 00:08:50;;;;;;;4.60;3.40;;;;;;;-0.27;97.76;100488.09;107592;1250;109960;-67
2023/04/06 00:11:18;;;;;;;6.30;3.40;;;;;;;-0.25;97.67;100486.80;107590;1250;108490;-67
2023/04/06 00:13:47;;;;;;;4.50;3.10;;;;;;;-0.26;97.15;100488.05;107709;1248;97749;-67
2023/04/06 00:16:16;;;;;;;3.60;3.20;;;;;;;-0.25;97.46;100481.13;107959;1248;98459;-67
2023/04/06 00:18:44;;;;;;;4.70;3.50;;;;;;;-0.24;97.51;100477.56;107808;1252;110860;-64
2023/04/06 00:21:14;;;;;;;3.50;3.20;;;;;;;-0.24;97.29;100471.23;107942;1248;109271;-67
2023/04/06 00:23:42;;;;;;;6.10;3.80;;;;;;;-0.24;97.02;100469.78;107668;1250;107898;-67
2023/04/06 00:26:11;;;;;;;8.40;3.70;;;;;;;-0.24;97.08;100460.11;107655;1250;97869;-67
2023/04/06 00:28:39;;;;;;;5.80;3.40;;;;;;;-0.26;97.08;100461.23;107699;1253;98422;-67
2023/04/06 00:31:08;;;;;;;4.00;3.30;;;;;;;-0.24;96.81;100457.45;107695;1250;112325;-66
2023/04/06 00:33:36;;;;;;;4.30;3.10;;;;;;;-0.24;97.12;100454.84;107549;1250;109306;-67
2023/04/06 00:36:05;;;;;;;2.90;2.60;;;;;;;-0.24;97.28;100454.31;107712;1251;107703;-67
2023/04/06 00:38:33;;;;;;;3.70;3.10;;;;;;;-0.24;97.02;100455.88;107682;1251;97918;-66
2023/04/06 00:41:04;;;;;;;3.80;2.90;;;;;;;-0.23;96.56;100445.23;107640;1251;97785;-68
2023/04/06 00:43:33;;;;;;;5.40;3.70;;;;;;;-0.23;96.96;100443.69;107685;1251;111518;-66
2023/04/06 00:46:02;;;;;;;3.20;2.90;;;;;;;-0.24;97.10;100436.10;107615;1250;110062;-66
2023/04/06 00:48:31;;;;;;;4.60;3.10;;;;;;;-0.23;97.34;100432.58;107561;1250;108170;-67
2023/04/06 00:51:01;;;;;;;4.70;2.90;;;;;;;-0.24;97.18;100429.96;107584;1250;97750;-65
2023/04/06 00:53:30;;;;;;;3.90;2.70;;;;;;;-0.26;97.36;100426.71;107615;1253;98341;-68
2023/04/06 00:56:00;;;;;;;4.10;3.70;;;;;;;-0.25;97.28;100433.02;107649;1250;110316;-68
2023/04/06 00:58:33;;;;;;;4.60;3.40;;;;;;;-0.24;97.36;100424.16;107547;1250;109329;-67
2023/04/06 01:01:06;;;;;;;7.30;4.00;;;;;;;-0.24;97.44;100421.85;107635;1250;106938;-67
2023/04/06 01:03:35;;;;;;;4.50;3.80;;;;;;;-0.23;96.89;100417.03;107709;1251;97845;-67
2023/04/06 01:06:05;;;;;;;4.10;3.40;;;;;;;-0.22;96.81;100413.83;107611;1251;98440;-66
2023/04/06 01:08:37;;;;;;;4.10;3.30;;;;;;;-0.23;96.88;100413.20;107662;1250;111649;-66
2023/04/06 01:11:15;;;;;;;4.60;3.30;;;;;;;-0.24;97.01;100409.70;107636;1253;109191;-67
2023/04/06 01:13:44;;;;;;;5.50;4.00;;;;;;;-0.26;96.95;100405.92;107718;1248;107747;-66
2023/04/06 01:16:21;;;;;;;4.50;3.30;;;;;;;-0.25;97.18;100398.13;107782;1250;97903;-67
2023/04/06 01:19:13;;;;;;;5.10;3.50;;;;;;;-0.23;97.14;100401.05;107592;1251;98572;-66
2023/04/06 01:21:46;;;;;;;3.80;3.40;;;;;;;-0.23;96.50;100407.71;107659;1254;111172;-66
2023/04/06 01:24:33;;;;;;;4.90;3.50;;;;;;;-0.24;96.60;100393.67;107515;1250;109663;-67
2023/04/06 01:27:29;;;;;;;4.40;3.70;;;;;;;-0.24;96.83;100392.78;107517;1250;107775;-66
2023/04/06 01:30:16;;;;;;;4.50;3.20;;;;;;;-0.25;96.74;100391.41;107460;1250;97822;-69
2023/04/06 01:33:01;;;;;;;4.90;3.50;;;;;;;-0.25;96.81;100388.77;107551;1251;97832;-67
2023/04/06 01:36:05;;;;;;;3.90;3.50;;;;;;;-0.26;96.80;100387.05;107632;1250;111569;-67
2023/04/06 01:38:35;;;;;;;4.50;3.50;;;;;;;-0.26;97.09;100380.72;107719;1250;109436;-67
2023/04/06 01:41:05;;;;;;;4.40;3.60;;;;;;;-0.26;96.94;100378.77;107584;1250;108415;-67
2023/04/06 01:43:55;;;;;;;;;;;;;;;;;;;;;
2023/04/06 01:46:28;;;;;;;5.70;3.50;;;;;;;-0.25;96.73;100373.81;107681;1250;97832;-67
2023/04/06 01:48:57;;;;;;;5.20;3.90;;;;;;;-0.28;96.68;100369.89;107545;1253;111041;-67
2023/04/06 01:51:37;;;;;;;5.00;3.70;;;;;;;-0.29;96.93;100366.59;107560;1250;109819;-68
2023/04/06 01:54:07;;;;;;;4.00;3.60;;;;;;;-0.30;96.90;100366.45;107571;1250;107727;-70
2023/04/06 01:56:53;;;;;;;3.90;3.50;;;;;;;-0.29;97.23;100360.45;107541;1250;97858;-68
2023/04/06 01:59:29;;;;;;;4.30;3.60;;;;;;;-0.28;97.17;100358.80;107707;1250;97925;-68
2023/04/06 02:01:58;;;;;;;5.70;3.70;;;;;;;-0.28;97.08;100360.92;107685;1251;110896;-68
2023/04/06 02:04:27;;;;;;;4.60;3.30;;;;;;;-0.29;97.02;100353.40;107668;1251;109598;-67
2023/04/06 02:07:04;;;;;;;4.70;3.30;;;;;;;-0.29;96.79;100349.88;107650;1254;107677;-67
2023/04/06 02:09:32;;;;;;;2.70;2.50;;;;;;;-0.28;96.80;100351.23;107439;1253;97980;-67
2023/04/06 02:12:01;;;;;;;5.30;3.30;;;;;;;-0.30;96.97;100351.67;107720;1250;98349;-68
2023/04/06 02:14:33;;;;;;;3.80;3.30;;;;;;;-0.30;96.87;100342.50;107560;1250;111424;-67
2023/04/06 02:17:01;;;;;;;6.60;3.70;;;;;;;-0.31;97.01;100341.48;107686;1250;109210;-67
2023/04/06 02:19:31;;;;;;;11.50;3.90;;;;;;;-0.31;97.22;100334.47;107717;1252;107788;-67
2023/04/06 02:22:00;;;;;;;3.60;2.90;;;;;;;-0.31;97.10;100340.96;107664;1250;97791;-66
2023/04/06 02:24:28;;;;;;;4.00;3.60;;;;;;;-0.32;96.91;100340.48;107724;1256;97701;-68
2023/04/06 02:26:57;;;;;;;4.80;3.50;;;;;;;-0.33;97.25;100335.61;107747;1250;110772;-68
2023/04/06 02:29:26;;;;;;;4.00;3.50;;;;;;;-0.34;97.33;100337.21;107646;1250;109160;-68
2023/04/06 02:31:54;;;;;;;4.30;3.50;;;;;;;-0.32;97.16;100341.39;107685;1255;107135;-67
2023/04/06 02:34:23;;;;;;;3.50;3.00;;;;;;;-0.32;96.94;100330.80;107681;1251;97898;-67
2023/04/06 02:36:52;;;;;;;5.40;3.70;;;;;;;-0.34;97.19;100334.21;107704;1250;97823;-68
2023/04/06 02:39:20;;;;;;;4.80;3.30;;;;;;;-0.34;97.27;100336.54;107751;1250;111815;-67
2023/04/06 02:41:50;;;;;;;3.60;2.90;;;;;;;-0.35;97.27;100331.08;107702;1251;109518;-70
2023/04/06 02:44:23;;;;;;;3.70;3.30;;;;;;;-0.35;97.33;100321.76;107751;1251;109030;-67
2023/04/06 02:46:52;;;;;;;4.40;3.60;;;;;;;-0.35;97.13;100323.52;107678;1251;97814;-68
2023/04/06 02:49:21;;;;;;;4.10;3.60;;;;;;;-0.35;97.32;100330.39;107628;1253;97739;-68
2023/04/06 02:51:51;;;;;;;4.20;3.80;;;;;;;-0.35;97.25;100322.65;107647;1251;112457;-67
2023/04/06 02:54:23;;;;;;;3.40;3.00;;;;;;;-0.36;97.55;100326.23;107679;1251;109231;-68
2023/04/06 02:56:51;;;;;;;4.80;3.40;;;;;;;-0.36;97.54;100323.79;107697;1251;107708;-67
2023/04/06 02:59:20;;;;;;;4.10;3.50;;;;;;;-0.36;97.60;100325.38;107650;1250;98357;-67
2023/04/06 03:02:00;;;;;;;3.60;2.90;;;;;;;-0.38;97.72;100318.56;107699;1253;98459;-67
2023/04/06 03:04:30;;;;;;;4.40;3.20;;;;;;;-0.37;97.59;100327.86;107645;1253;111638;-69
2023/04/06 03:07:00;;;;;;;3.70;3.20;;;;;;;-0.37;97.44;100328.77;107612;1251;109479;-66
2023/04/06 03:09:38;;;;;;;4.20;3.30;;;;;;;-0.39;97.54;100328.32;107623;1251;107806;-67
2023/04/06 03:12:07;;;;;;;7.60;4.70;;;;;;;-0.38;97.62;100328.98;107618;1250;97816;-67
2023/04/06 03:14:56;;;;;;;5.10;4.00;;;;;;;-0.39;97.83;100330.79;107940;1248;97829;-67
2023/04/06 03:17:26;;;;;;;4.40;3.60;;;;;;;-0.39;97.73;100330.08;107638;1251;111831;-68
2023/04/06 03:19:59;;;;;;;6.60;3.90;;;;;;;-0.39;97.76;100333.44;107653;1253;109304;-68
2023/04/06 03:22:30;;;;;;;4.90;3.40;;;;;;;-0.40;98.04;100331.37;107699;1250;107664;-70
2023/04/06 03:24:58;;;;;;;3.90;3.50;;;;;;;-0.41;98.42;100328.27;107721;1256;97943;-69
2023/04/06 03:27:32;;;;;;;5.80;4.00;;;;;;;-0.42;98.53;100325.31;107589;1250;97810;-68
2023/04/06 03:30:02;;;;;;;3.70;3.30;;;;;;;-0.43;98.74;100325.89;107457;1250;112165;-68
2023/04/06 03:32:38;;;;;;;5.10;3.50;;;;;;;-0.43;98.87;100323.80;107583;1250;109066;-66
2023/04/06 03:35:07;;;;;;;5.10;3.40;;;;;;;-0.44;98.98;100330.16;107695;1250;107993;-67
2023/04/06 03:37:36;;;;;;;4.50;3.80;;;;;;;-0.45;99.33;100335.14;107721;1250;97819;-68
2023/04/06 03:40:06;;;;;;;7.60;3.50;;;;;;;-0.46;99.63;100333.79;107596;1254;97698;-67
2023/04/06 03:42:34;;;;;;;3.50;3.10;;;;;;;-0.47;99.91;100340.34;107620;1252;110769;-68
2023/04/06 03:45:09;;;;;;;4.50;3.60;;;;;;;-0.50;99.97;100341.53;107732;1251;109012;-68
2023/04/06 03:47:40;;;;;;;3.00;2.70;;;;;;;-0.51;100.00;100339.81;107654;1253;108164;-68
2023/04/06 03:50:15;;;;;;;3.40;3.00;;;;;;;-0.52;100.00;100339.54;107676;1253;98502;-68
2023/04/06 03:52:45;;;;;;;4.60;3.40;;;;;;;-0.51;100.00;100341.77;107622;1251;97856;-68
2023/04/06 03:55:14;;;;;;;4.70;3.80;;;;;;;-0.51;100.00;100341.60;107642;1253;110828;-65
2023/04/06 03:57:42;;;;;;;5.70;4.20;;;;;;;-0.53;100.00;100342.55;107703;1250;108802;-69
2023/04/06 04:00:12;;;;;;;4.80;4.00;;;;;;;-0.53;100.00;100340.80;107582;1250;108144;-70
2023/04/06 04:02:40;;;;;;;5.30;3.70;;;;;;;-0.53;100.00;100341.33;107643;1251;97953;-67
2023/04/06 04:05:09;;;;;;;4.30;3.70;;;;;;;-0.52;100.00;100344.66;107667;1253;98297;-68
2023/04/06 04:07:38;;;;;;;3.90;3.40;;;;;;;-0.53;100.00;100344.16;107706;1251;111801;-66
2023/04/06 04:10:08;;;;;;;5.80;3.40;;;;;;;-0.53;100.00;100337.44;107655;1253;110111;-68
2023/04/06 04:12:36;;;;;;;3.80;3.40;;;;;;;-0.52;100.00;100340.61;107678;1248;107567;-67
2023/04/06 04:15:06;;;;;;;5.90;3.90;;;;;;;-0.51;100.00;100341.45;107606;1254;97729;-68
2023/04/06 04:17:35;;;;;;;5.90;3.80;;;;;;;-0.51;100.00;100331.94;107662;1250;98367;-66
2023/04/06 04:20:04;;;;;;;4.00;3.40;;;;;;;-0.51;100.00;100330.69;107784;1248;111913;-67
2023/04/06 04:22:33;;;;;;;4.20;3.50;;;;;;;-0.51;100.00;100329.27;107608;1250;108779;-66
2023/04/06 04:25:01;;;;;;;4.10;3.40;;;;;;;-0.52;100.00;100335.45;107546;1253;108128;-66
2023/04/06 04:27:31;;;;;;;6.50;4.00;;;;;;;-0.51;100.00;100335.44;107695;1251;97815;-69
2023/04/06 04:30:00;;;;;;;4.20;3.50;;;;;;;-0.50;100.00;100338.02;107628;1250;97708;-68
2023/04/06 04:32:28;;;;;;;3.80;3.10;;;;;;;-0.47;100.00;100339.48;107791;1251;111414;-67
2023/04/06 04:34:57;;;;;;;4.30;3.90;;;;;;;-0.45;100.00;100343.26;107757;1251;108692;-67
2023/04/06 04:37:37;;;;;;;4.30;3.10;;;;;;;-0.44;100.00;100342.30;107666;1251;108361;-66
2023/04/06 04:40:06;;;;;;;3.40;3.10;;;;;;;-0.43;100.00;100340.84;107550;1251;97912;-67
2023/04/06 04:42:43;;;;;;;9.90;5.80;;;;;;;-0.42;100.00;100337.82;107627;1250;97899;-66
2023/04/06 04:45:18;;;;;;;6.50;4.60;;;;;;;-0.43;100.00;100340.84;107613;1251;111607;-66
2023/04/06 04:47:47;;;;;;;8.60;5.90;;;;;;;-0.43;100.00;100342.82;107572;1250;109031;-67
2023/04/06 04:50:17;;;;;;;8.10;4.70;;;;;;;-0.43;100.00;100340.32;107685;1252;107641;-66
2023/04/06 04:52:46;;;;;;;6.40;4.40;;;;;;;-0.42;100.00;100340.12;107584;1251;97835;-66
2023/04/06 04:55:19;;;;;;;6.70;5.10;;;;;;;-0.40;100.00;100336.65;107733;1250;97867;-65
2023/04/06 04:57:51;;;;;;;11.50;6.30;;;;;;;-0.39;100.00;100335.55;107778;1251;111058;-68
2023/04/06 05:00:23;;;;;;;6.00;3.90;;;;;;;-0.37;100.00;100335.44;107692;1251;110377;-67
2023/04/06 05:02:55;;;;;;;5.20;3.90;;;;;;;-0.36;100.00;100336.43;107601;1251;107997;-66
2023/04/06 05:05:27;;;;;;;4.00;3.50;;;;;;;-0.34;100.00;100336.33;107618;1253;97700;-66
2023/04/06 05:07:56;;;;;;;5.80;4.70;;;;;;;-0.30;100.00;100331.91;107560;1254;97940;-67
2023/04/06 05:10:40;;;;;;;6.20;4.90;;;;;;;-0.26;100.00;100332.95;107695;1251;111527;-66
2023/04/06 05:13:08;;;;;;;5.50;4.20;;;;;;;-0.24;99.93;100331.10;107605;1253;109761;-65
2023/04/06 05:15:38;;;;;;;5.60;3.70;;;;;;;-0.23;99.77;100325.95;107678;1251;107923;-66
2023/04/06 05:18:13;;;;;;;3.20;2.90;;;;;;;-0.20;99.34;100328.80;107728;1249;97809;-67
2023/04/06 05:20:42;;;;;;;5.60;4.10;;;;;;;-0.19;98.77;100338.09;107887;1250;97677;-66
2023/04/06 05:23:11;;;;;;;3.80;3.20;;;;;;;-0.17;98.81;100325.10;107714;1257;110557;-67
2023/04/06 05:25:40;;;;;;;5.30;3.90;;;;;;;-0.16;98.69;100322.75;107679;1250;109706;-66
2023/04/06 05:28:16;;;;;;;5.00;4.30;;;;;;;-0.16;98.58;100319.20;107679;1255;109203;-67
2023/04/06 05:30:46;;;;;;;4.40;3.90;;;;;;;-0.15;98.55;100323.08;107623;1251;97872;-68
2023/04/06 05:33:15;;;;;;;5.80;3.80;;;;;;;-0.15;98.58;100325.20;107717;1251;98466;-66
2023/04/06 05:36:06;;;;;;;6.40;3.40;;;;;;;-0.15;98.24;100325.71;107521;1250;112134;-66
2023/04/06 05:38:38;;;;;;;7.20;5.20;;;;;;;-0.17;98.14;100324.70;107589;1251;109996;-66
2023/04/06 05:41:15;;;;;;;5.40;4.10;;;;;;;-0.16;98.06;100327.34;107575;1250;108230;-66
2023/04/06 05:43:43;;;;;;;5.00;3.60;;;;;;;-0.15;97.88;100322.54;107542;1251;97800;-67
2023/04/06 05:46:13;;;;;;;4.80;3.70;;;;;;;-0.13;97.77;100322.81;107530;1250;97812;-67
2023/04/06 05:48:42;;;;;;;5.50;4.30;;;;;;;-0.12;97.81;100320.46;107542;1251;111797;-66
2023/04/06 05:51:12;;;;;;;5.90;4.40;;;;;;;-0.08;98.05;100316.38;107706;1253;109275;-64
2023/04/06 05:53:47;;;;;;;5.60;4.50;;;;;;;-0.05;97.76;100312.52;107569;1253;108262;-66
2023/04/06 05:56:16;;;;;;;6.20;4.10;;;;;;;-0.04;97.33;100310.86;107687;1255;97932;-66
2023/04/06 05:58:44;;;;;;;6.10;5.00;;;;;;;-0.04;97.43;100305.73;107519;1251;97694;-66
2023/04/06 06:01:15;;;;;;;8.50;4.60;;;;;;;-0.02;97.19;100310.56;107630;1253;110621;-66
2023/04/06 06:03:46;;;;;;;4.90;4.00;;;;;;;0.00;96.90;100304.67;107626;1253;109981;-65
2023/04/06 06:06:15;;;;;;;4.60;4.10;;;;;;;0.02;96.87;100303.34;107660;1251;108773;-66
2023/04/06 06:09:00;;;;;;;4.60;3.70;;;;;;;0.04;96.43;100299.34;107551;1250;97887;-65
2023/04/06 06:11:29;;;;;;;5.30;3.50;;;;;;;0.07;96.14;100294.25;107537;1250;97877;-65
2023/04/06 06:13:59;;;;;;;5.40;4.30;;;;;;;0.10;96.02;100293.77;107584;1254;111732;-65
2023/04/06 06:16:27;;;;;;;6.40;4.50;;;;;;;0.12;95.92;100299.27;107666;1251;109959;-66
2023/04/06 06:18:56;;;;;;;5.90;4.10;;;;;;;0.13;95.75;100293.04;107551;1250;108206;-65
2023/04/06 06:21:25;;;;;;;5.20;3.90;;;;;;;0.15;95.74;100300.69;107569;1255;97861;-66
2023/04/06 06:23:54;;;;;;;6.30;4.90;;;;;;;0.18;95.26;100297.77;107700;1251;97829;-69
2023/04/06 06:26:23;;;;;;;5.70;4.30;;;;;;;0.18;95.27;100296.54;107756;1255;110858;-68
2023/04/06 06:28:51;;;;;;;8.30;5.60;;;;;;;0.20;95.23;100298.16;107540;1256;109937;-65
2023/04/06 06:31:22;;;;;;;6.50;4.80;;;;;;;0.24;95.05;100291.44;107541;1250;107876;-67
2023/04/06 06:33:51;;;;;;;6.70;5.40;;;;;;;0.28;94.94;100295.26;107530;1251;97929;-66
2023/04/06 06:36:20;;;;;;;6.50;4.10;;;;;;;0.31;94.24;100297.23;107593;1250;97707;-67
2023/04/06 06:38:49;;;;;;;6.10;4.40;;;;;;;0.30;93.54;100294.64;107649;1251;111723;-66
2023/04/06 06:41:19;;;;;;;5.60;4.40;;;;;;;0.30;93.77;100292.17;107586;1251;108466;-67
2023/04/06 06:43:48;;;;;;;5.40;4.20;;;;;;;0.32;93.67;100294.69;107607;1251;108502;-67
2023/04/06 06:46:18;;;;;;;7.80;4.60;;;;;;;0.34;93.74;100295.98;107562;1253;97832;-66
2023/04/06 06:48:47;;;;;;;6.90;4.80;;;;;;;0.37;93.73;100297.61;107668;1253;98393;-65
2023/04/06 06:51:15;;;;;;;5.00;4.10;;;;;;;0.37;93.36;100289.69;107531;1253;111813;-66
2023/04/06 06:53:44;;;;;;;7.90;4.60;;;;;;;0.37;93.32;100291.10;107680;1250;109460;-66
2023/04/06 06:56:12;;;;;;;7.80;4.30;;;;;;;0.39;93.35;100285.36;107500;1254;107695;-66
2023/04/06 06:58:42;;;;;;;4.40;3.90;;;;;;;0.42;93.41;100288.00;107658;1251;97913;-66
2023/04/06 07:01:10;;;;;;;4.60;3.80;;;;;;;0.44;93.14;100290.55;107645;1254;97746;-65
2023/04/06 07:03:39;;;;;;;6.30;4.30;;;;;;;0.42;93.61;100284.63;107647;1256;110701;-66
2023/04/06 07:06:07;;;;;;;5.40;4.20;;;;;;;0.43;93.74;100293.39;107486;1251;109668;-68
2023/04/06 07:08:36;;;;;;;6.40;4.70;;;;;;;0.43;93.48;100294.11;107677;1251;108456;-66
2023/04/06 07:11:04;;;;;;;4.70;4.10;;;;;;;0.45;93.27;100303.73;107655;1256;97817;-66
2023/04/06 07:13:33;;;;;;;4.90;3.80;;;;;;;0.45;93.08;100308.30;107758;1251;97698;-67
2023/04/06 07:16:01;;;;;;;9.80;5.80;;;;;;;0.44;92.85;100308.85;107543;1251;111340;-67
2023/04/06 07:18:30;;;;;;;8.20;4.60;;;;;;;0.43;93.02;100308.95;107688;1251;109686;-67
2023/04/06 07:21:03;;;;;;;4.90;4.30;;;;;;;0.43;93.04;100308.23;107664;1251;107982;-68
2023/04/06 07:23:31;;;;;;;4.90;3.80;;;;;;;0.43;93.18;100311.25;107737;1256;97916;-66
2023/04/06 07:26:00;;;;;;;6.30;4.60;;;;;;;0.48;93.31;100315.02;107570;1254;97730;-66
2023/04/06 07:28:28;;;;;;;5.60;4.10;;;;;;;0.50;92.97;100317.20;107684;1256;112172;-68
2023/04/06 07:30:57;;;;;;;5.60;4.20;;;;;;;0.50;92.67;100315.45;107523;1252;108989;-67
2023/04/06 07:33:29;;;;;;;7.20;4.00;;;;;;;0.52;92.87;100315.20;107493;1253;107843;-67
2023/04/06 07:35:59;;;;;;;6.10;4.60;;;;;;;0.55;92.84;100313.74;107547;1251;97709;-68
2023/04/06 07:38:27;;;;;;;4.70;3.60;;;;;;;0.59;93.23;100306.33;107628;1253;97709;-66
2023/04/06 07:40:56;;;;;;;6.00;4.10;;;;;;;0.63;92.63;100320.94;107504;1254;111244;-66
2023/04/06 07:43:25;;;;;;;6.20;4.40;;;;;;;0.67;92.54;100309.93;107701;1251;109751;-67
2023/04/06 07:45:54;;;;;;;4.90;4.30;;;;;;;0.70;92.21;100315.09;107636;1250;107177;-67
2023/04/06 07:48:23;;;;;;;4.70;3.70;;;;;;;0.71;91.94;100311.70;107665;1251;97832;-66
2023/04/06 07:50:52;;;;;;;6.20;4.10;;;;;;;0.69;91.98;100309.82;107708;1249;97816;-67
2023/04/06 07:53:23;;;;;;;5.00;4.00;;;;;;;0.73;91.92;100308.23;107681;1251;110629;-68
2023/04/06 07:55:52;;;;;;;4.70;4.10;;;;;;;0.74;91.79;100307.45;107571;1250;109608;-68
2023/04/06 07:58:20;;;;;;;7.50;4.80;;;;;;;0.74;91.10;100306.20;106918;1251;798953;-67
2023/04/06 08:00:48;;;;;;;6.30;4.30;;;;;;;0.77;90.96;100301.79;107622;1251;97837;-68
2023/04/06 08:03:20;;;;;;;7.80;4.70;;;;;;;0.81;90.87;100303.55;107540;1251;98358;-67
2023/04/06 08:05:49;;;;;;;5.80;4.90;;;;;;;0.84;90.79;100306.19;107577;1257;112313;-67
2023/04/06 08:08:17;;;;;;;9.30;4.70;;;;;;;0.86;90.39;100309.23;107681;1251;109660;-68
2023/04/06 08:10:45;;;;;;;5.90;4.60;;;;;;;0.90;90.19;100311.17;107539;1251;108601;-68
2023/04/06 08:13:15;;;;;;;6.50;4.10;;;;;;;0.90;89.58;100317.67;107726;1251;97790;-68
2023/04/06 08:15:44;;;;;;;6.30;4.40;;;;;;;0.92;89.85;100316.15;107688;1255;97708;-67
2023/04/06 08:18:13;;;;;;;6.60;4.50;;;;;;;0.94;89.58;100322.04;107590;1258;111906;-68
2023/04/06 08:20:41;;;;;;;8.00;4.50;;;;;;;0.98;89.37;100319.19;107648;1250;108789;-67
2023/04/06 08:23:10;;;;;;;5.90;4.00;;;;;;;1.01;89.51;100323.82;107474;1251;108214;-66
2023/04/06 08:25:39;;;;;;;7.10;4.10;;;;;;;1.03;89.16;100327.08;107560;1256;97814;-71
2023/04/06 08:28:09;;;;;;;5.50;4.70;;;;;;;1.04;89.06;100323.79;107531;1251;98363;-67
2023/04/06 08:30:40;;;;;;;5.60;4.30;;;;;;;1.05;88.89;100330.27;107547;1251;112035;-65
2023/04/06 08:33:09;;;;;;;9.00;4.30;;;;;;;1.04;88.47;100328.20;107488;1251;109442;-70
2023/04/06 08:35:38;;;;;;;6.10;5.00;;;;;;;1.03;88.58;100338.00;107675;1251;108682;-69
2023/04/06 08:38:07;;;;;;;8.40;4.80;;;;;;;1.04;88.61;100335.62;107642;1251;97891;-69
2023/04/06 08:40:39;;;;;;;8.50;5.20;;;;;;;1.09;88.69;100338.02;107585;1251;97894;-70
2023/04/06 08:43:14;;;;;;;7.20;5.20;;;;;;;1.12;88.58;100340.34;107601;1253;111853;-70
2023/04/06 08:45:43;;;;;;;7.90;5.60;;;;;;;1.15;88.60;100338.20;107644;1252;108797;-71
2023/04/06 08:48:12;;;;;;;6.70;4.50;;;;;;;1.18;88.19;100343.86;107674;1256;108192;-68
2023/04/06 08:50:41;;;;;;;7.30;5.00;;;;;;;1.19;87.80;100342.75;107677;1251;97804;-67
2023/04/06 08:53:11;;;;;;;6.20;5.40;;;;;;;1.21;87.71;100345.11;107575;1253;97928;-67
2023/04/06 08:55:43;;;;;;;4.90;4.40;;;;;;;1.23;87.31;100341.27;107636;1251;112544;-68
2023/04/06 08:58:12;;;;;;;8.20;5.00;;;;;;;1.25;86.87;100341.71;107622;1250;108957;-68
2023/04/06 09:00:50;;;;;;;9.10;5.20;;;;;;;1.30;87.08;100338.95;107588;1251;108258;-67
2023/04/06 09:03:20;;;;;;;7.40;5.20;;;;;;;1.34;86.42;100345.29;107543;1251;97886;-67
2023/04/06 09:05:50;;;;;;;7.60;5.40;;;;;;;1.39;86.45;100342.35;107621;1251;97695;-68
2023/04/06 09:08:18;;;;;;;6.70;5.10;;;;;;;1.49;86.64;100342.29;107728;1251;111181;-67
2023/04/06 09:10:48;;;;;;;8.30;4.80;;;;;;;1.57;86.41;100339.17;107658;1251;109173;-67
2023/04/06 09:13:16;;;;;;;8.70;5.80;;;;;;;1.63;86.10;100339.55;107731;1251;107257;-67
2023/04/06 09:15:46;;;;;;;8.10;5.70;;;;;;;1.71;85.97;100335.69;107561;1251;97896;-67
2023/04/06 09:18:30;;;;;;;9.40;6.10;;;;;;;1.80;85.65;100336.11;107623;1249;98421;-68
2023/04/06 09:21:05;;;;;;;8.90;5.70;;;;;;;1.89;85.54;100334.84;107585;1251;111818;-67
2023/04/06 09:23:33;;;;;;;;;;;;;;;2.00;85.50;100336.13;107684;1257;109890;-68
2023/04/06 09:26:15;;;;;;;7.10;5.20;;;;;;;2.10;84.80;100337.15;107464;1251;107715;-68
2023/04/06 09:28:50;;;;;;;4.90;4.20;;;;;;;2.14;84.66;100340.94;107658;1257;97902;-71
2023/04/06 09:31:29;;;;;;;10.30;5.50;;;;;;;2.17;84.13;100338.12;107531;1251;97810;-69
2023/04/06 09:34:00;;;;;;;9.50;5.00;;;;;;;2.25;84.36;100341.05;107722;1251;113561;-69
2023/04/06 09:36:41;;;;;;;6.90;4.50;;;;;;;2.23;83.85;100349.48;107563;1251;109916;-68
2023/04/06 09:39:09;;;;;;;4.90;4.40;;;;;;;2.24;83.87;100351.20;107697;1251;108485;-70
2023/04/06 09:41:43;;;;;;;6.90;5.20;;;;;;;2.20;83.98;100345.20;107586;1251;97925;-70
2023/04/06 09:44:23;;;;;;;6.00;4.30;;;;;;;2.19;84.49;100359.61;107486;1250;98383;-74
2023/04/06 09:46:57;;;;;;;7.40;5.10;;;;;;;2.22;84.10;100353.58;107565;1253;111972;-66
2023/04/06 09:49:35;;;;;;;7.50;5.00;;;;;;;2.22;84.27;100352.55;107686;1251;109413;-66
2023/04/06 09:52:07;;;;;;;7.20;5.20;;;;;;;2.21;84.66;100358.44;107689;1251;107541;-67
2023/04/06 09:54:41;;;;;;;6.70;4.90;;;;;;;2.17;84.31;100363.43;107678;1250;97826;-72
2023/04/06 09:57:28;;;;;;;5.60;4.50;;;;;;;2.13;84.65;100365.28;107635;1251;98396;-66
2023/04/06 10:00:11;;;;;;;6.80;4.60;;;;;;;2.12;85.08;100368.54;107674;1251;111736;-67
2023/04/06 10:02:52;;;;;;;6.40;5.00;;;;;;;2.12;85.05;100374.02;107587;1251;109274;-67
2023/04/06 10:05:37;;;;;;;7.40;4.20;;;;;;;2.13;85.43;100374.09;107580;1251;107697;-67
2023/04/06 10:08:09;;;;;;;5.50;4.30;;;;;;;2.17;85.44;100372.98;107542;1251;97851;-68
2023/04/06 10:10:38;;;;;;;4.90;4.00;;;;;;;2.23;85.47;100374.73;107710;1251;97814;-67
2023/04/06 10:13:07;;;;;;;5.80;4.80;;;;;;;2.22;85.14;100379.25;107680;1251;112519;-67
2023/04/06 10:15:38;;;;;;;6.60;4.70;;;;;;;2.16;85.17;100375.55;107692;1251;109583;-66
2023/04/06 10:18:08;;;;;;;7.00;5.00;;;;;;;2.18;85.41;100376.85;107543;1251;107719;-67
2023/04/06 10:20:43;;;;;;;8.10;4.60;;;;;;;2.21;85.55;100383.35;107671;1251;97806;-67
2023/04/06 10:23:36;;;;;;;8.20;4.80;;;;;;;2.21;85.65;100382.30;107544;1250;98268;-66
2023/04/06 10:26:05;;;;;;;6.60;4.70;;;;;;;2.26;85.69;100382.02;107478;1251;111690;-67
2023/04/06 10:28:36;;;;;;;6.00;4.50;;;;;;;2.23;85.42;100389.82;107565;1251;111335;-66
2023/04/06 10:31:05;;;;;;;8.00;5.20;;;;;;;2.21;85.47;100389.41;107557;1251;108104;-67
2023/04/06 10:33:34;;;;;;;6.50;5.00;;;;;;;2.24;85.83;100391.20;107610;1251;97834;-65
2023/04/06 10:36:13;;;;;;;8.80;5.30;;;;;;;2.27;86.13;100394.50;107753;1251;97831;-66
2023/04/06 10:38:42;;;;;;;6.50;4.70;;;;;;;2.29;85.70;100395.78;107601;1251;112248;-66
2023/04/06 10:41:12;;;;;;;7.30;5.10;;;;;;;2.36;85.66;100398.60;107531;1251;109814;-67
2023/04/06 10:43:41;;;;;;;6.10;5.00;;;;;;;2.47;85.83;100397.39;107575;1253;107800;-67
2023/04/06 10:46:11;;;;;;;7.20;5.20;;;;;;;2.53;86.35;100394.34;107562;1251;97804;-68
2023/04/06 10:48:49;;;;;;;9.00;7.20;;;;;;;2.71;86.48;100394.84;107556;1250;97683;-65
2023/04/06 10:51:20;;;;;;;11.30;7.10;;;;;;;2.86;85.84;100396.61;107630;1251;112158;-65
2023/04/06 10:53:49;;;;;;;12.30;8.90;;;;;;;3.02;85.96;100396.85;107615;1251;109931;-67
2023/04/06 10:56:22;;;;;;;12.10;8.50;;;;;;;3.18;85.82;100394.44;107547;1251;108525;-64
2023/04/06 10:58:57;;;;;;;13.80;8.90;;;;;;;3.29;84.52;100402.92;107534;1253;97877;-66
2023/04/06 11:01:27;;;;;;;13.00;9.70;;;;;;;3.38;84.09;100403.11;107613;1251;98383;-67
2023/04/06 11:04:00;;;;;;;12.50;9.80;;;;;;;3.35;83.86;100400.14;107738;1255;112361;-66
2023/04/06 11:06:33;;;;;;;14.10;10.10;;;;;;;3.32;83.21;100399.91;107632;1251;108787;-66
2023/04/06 11:09:01;;;;;;;11.70;9.70;;;;;;;3.31;83.19;100404.06;107610;1250;108718;-67
2023/04/06 11:11:36;;;;;;;14.60;11.10;;;;;;;3.28;83.10;100403.52;107525;1251;97899;-66
2023/04/06 11:14:04;;;;;;;10.70;9.30;;;;;;;3.19;83.34;100406.08;107798;1251;98325;-67
2023/04/06 11:16:33;;;;;;;10.40;7.90;;;;;;;3.05;83.52;100410.45;107670;1251;111732;-67
2023/04/06 11:19:05;;;;;;;14.40;8.70;;;;;;;2.96;83.52;100407.48;107853;1251;109400;-67
2023/04/06 11:21:48;;;;;;;9.90;8.50;;;;;;;2.97;83.69;100409.21;107664;1254;107048;-65
2023/04/06 11:24:23;;;;;;;9.90;8.70;;;;;;;2.98;83.54;100406.52;107585;1251;97828;-66
2023/04/06 11:26:56;;;;;;;11.20;9.10;;;;;;;3.07;84.23;100407.71;107612;1253;97682;-66
2023/04/06 11:29:27;;;;;;;9.60;7.50;;;;;;;3.08;83.81;100408.70;107689;1250;111880;-67
2023/04/06 11:32:00;;;;;;;10.00;6.50;;;;;;;2.99;83.26;100410.87;107654;1250;109818;-69
2023/04/06 11:34:30;;;;;;;8.70;7.10;;;;;;;3.06;84.59;100409.18;107582;1251;108225;-70
2023/04/06 11:37:02;;;;;;;7.50;6.60;;;;;;;3.12;83.69;100413.77;107662;1251;97797;-69